sensor_id;sensor_type;location;lat;lon;timestamp;P1;durP1;ratioP1;P2;durP2;ratioP2
66521;SDS011;53349;53.538;8.584;2022-11-04T00:00:07;7.38;;;2.88;;
66521;SDS011;53349;53.538;8.584;2022-11-04T00:02:33;7.32;;;3.00;;
66521;SDS011;53349;53.538;8.584;2022-11-04T00:04:58;7.90;;;2.80;;
66521;SDS011;53349;53.538;8.584;2022-11-04T00:07:24;9.67;;;3.20;;
66521;SDS011;53349;53.538;8.584;2022-11-04T00:10:07;7.90;;;3.22;;
66521;SDS011;53349;53.538;8.584;2022-11-04T00:12:33;7.50;;;3.13;;
66521;SDS011;53349;53.538;8.584;2022-11-04T00:14:58;9.73;;;3.27;;
66521;SDS011;53349;53.538;8.584;2022-11-04T00:17:43;8.73;;;3.10;;
66521;SDS011;53349;53.538;8.584;2022-11-04T00:20:09;7.37;;;3.10;;
66521;SDS011;53349;53.538;8.584;2022-11-04T00:22:53;8.90;;;4.15;;
66521;SDS011;53349;53.538;8.584;2022-11-04T00:25:36;7.60;;;3.10;;
66521;SDS011;53349;53.538;8.584;2022-11-04T00:28:20;6.63;;;3.27;;
66521;SDS011;53349;53.538;8.584;2022-11-04T00:31:05;7.00;;;2.85;;
66521;SDS011;53349;53.538;8.584;2022-11-04T00:33:50;8.20;;;2.97;;
66521;SDS011;53349;53.538;8.584;2022-11-04T00:36:17;6.95;;;3.25;;
66521;SDS011;53349;53.538;8.584;2022-11-04T00:38:43;5.72;;;2.90;;
66521;SDS011;53349;53.538;8.584;2022-11-04T00:41:09;7.67;;;3.33;;
66521;SDS011;53349;53.538;8.584;2022-11-04T00:43:57;7.22;;;3.08;;
66521;SDS011;53349;53.538;8.584;2022-11-04T00:46:24;6.53;;;3.28;;
66521;SDS011;53349;53.538;8.584;2022-11-04T00:48:51;6.60;;;3.08;;
66521;SDS011;53349;53.538;8.584;2022-11-04T00:51:16;7.10;;;3.23;;
66521;SDS011;53349;53.538;8.584;2022-11-04T00:53:42;5.93;;;3.20;;
66521;SDS011;53349;53.538;8.584;2022-11-04T00:56:07;6.37;;;3.07;;
66521;SDS011;53349;53.538;8.584;2022-11-04T00:58:32;7.00;;;3.23;;
66521;SDS011;53349;53.538;8.584;2022-11-04T01:00:58;8.30;;;3.20;;
66521;SDS011;53349;53.538;8.584;2022-11-04T01:03:23;7.10;;;3.40;;
66521;SDS011;53349;53.538;8.584;2022-11-04T01:05:48;6.43;;;2.83;;
66521;SDS011;53349;53.538;8.584;2022-11-04T01:08:14;9.93;;;3.13;;
66521;SDS011;53349;53.538;8.584;2022-11-04T01:10:39;5.80;;;2.80;;
66521;SDS011;53349;53.538;8.584;2022-11-04T01:13:09;8.57;;;3.60;;
66521;SDS011;53349;53.538;8.584;2022-11-04T01:15:35;7.75;;;2.80;;
66521;SDS011;53349;53.538;8.584;2022-11-04T01:18:01;8.00;;;2.85;;
66521;SDS011;53349;53.538;8.584;2022-11-04T01:20:26;8.07;;;3.00;;
66521;SDS011;53349;53.538;8.584;2022-11-04T01:22:52;7.47;;;3.10;;
66521;SDS011;53349;53.538;8.584;2022-11-04T01:25:17;6.50;;;3.05;;
66521;SDS011;53349;53.538;8.584;2022-11-04T01:27:42;9.07;;;3.40;;
66521;SDS011;53349;53.538;8.584;2022-11-04T01:30:08;7.93;;;3.50;;
66521;SDS011;53349;53.538;8.584;2022-11-04T01:32:34;9.20;;;3.60;;
66521;SDS011;53349;53.538;8.584;2022-11-04T01:34:59;7.57;;;3.60;;
66521;SDS011;53349;53.538;8.584;2022-11-04T01:37:25;9.67;;;3.80;;
66521;SDS011;53349;53.538;8.584;2022-11-04T01:39:50;6.63;;;3.40;;
66521;SDS011;53349;53.538;8.584;2022-11-04T01:42:16;6.20;;;3.33;;
66521;SDS011;53349;53.538;8.584;2022-11-04T01:50:15;8.35;;;3.95;;
66521;SDS011;53349;53.538;8.584;2022-11-04T01:52:46;9.88;;;4.65;;
66521;SDS011;53349;53.538;8.584;2022-11-04T01:55:16;9.07;;;4.40;;
66521;SDS011;53349;53.538;8.584;2022-11-04T01:57:45;7.88;;;4.28;;
66521;SDS011;53349;53.538;8.584;2022-11-04T02:00:13;7.90;;;4.00;;
66521;SDS011;53349;53.538;8.584;2022-11-04T02:02:42;9.40;;;4.28;;
66521;SDS011;53349;53.538;8.584;2022-11-04T02:05:18;9.65;;;4.68;;
66521;SDS011;53349;53.538;8.584;2022-11-04T02:07:46;8.55;;;3.78;;
66521;SDS011;53349;53.538;8.584;2022-11-04T02:10:17;9.90;;;4.68;;
66521;SDS011;53349;53.538;8.584;2022-11-04T02:12:46;10.73;;;4.63;;
66521;SDS011;53349;53.538;8.584;2022-11-04T02:15:37;9.05;;;4.22;;
66521;SDS011;53349;53.538;8.584;2022-11-04T02:34:37;9.68;;;4.47;;
66521;SDS011;53349;53.538;8.584;2022-11-04T02:39:54;12.30;;;5.53;;
66521;SDS011;53349;53.538;8.584;2022-11-04T02:47:56;13.50;;;6.95;;
66521;SDS011;53349;53.538;8.584;2022-11-04T02:50:33;11.77;;;6.28;;
66521;SDS011;53349;53.538;8.584;2022-11-04T02:55:51;10.40;;;5.85;;
66521;SDS011;53349;53.538;8.584;2022-11-04T02:58:22;12.18;;;6.10;;
66521;SDS011;53349;53.538;8.584;2022-11-04T03:00:54;9.60;;;5.22;;
66521;SDS011;53349;53.538;8.584;2022-11-04T03:03:23;10.43;;;5.10;;
66521;SDS011;53349;53.538;8.584;2022-11-04T03:05:51;11.33;;;4.63;;
66521;SDS011;53349;53.538;8.584;2022-11-04T03:08:29;7.45;;;4.03;;
66521;SDS011;53349;53.538;8.584;2022-11-04T03:11:02;6.72;;;4.15;;
66521;SDS011;53349;53.538;8.584;2022-11-04T03:13:45;8.38;;;4.20;;
66521;SDS011;53349;53.538;8.584;2022-11-04T03:16:16;7.03;;;2.90;;
66521;SDS011;53349;53.538;8.584;2022-11-04T03:19:01;4.87;;;2.77;;
66521;SDS011;53349;53.538;8.584;2022-11-04T03:21:48;4.00;;;2.10;;
66521;SDS011;53349;53.538;8.584;2022-11-04T03:24:20;4.05;;;1.63;;
66521;SDS011;53349;53.538;8.584;2022-11-04T03:26:48;3.00;;;1.17;;
66521;SDS011;53349;53.538;8.584;2022-11-04T03:29:25;2.83;;;1.10;;
66521;SDS011;53349;53.538;8.584;2022-11-04T03:34:36;2.97;;;0.90;;
66521;SDS011;53349;53.538;8.584;2022-11-04T03:37:02;2.10;;;0.77;;
66521;SDS011;53349;53.538;8.584;2022-11-04T03:39:28;3.25;;;0.90;;
66521;SDS011;53349;53.538;8.584;2022-11-04T03:41:57;2.70;;;0.93;;
66521;SDS011;53349;53.538;8.584;2022-11-04T03:44:26;3.22;;;0.80;;
66521;SDS011;53349;53.538;8.584;2022-11-04T03:46:53;3.38;;;0.70;;
66521;SDS011;53349;53.538;8.584;2022-11-04T03:49:19;2.73;;;0.63;;
66521;SDS011;53349;53.538;8.584;2022-11-04T03:51:46;3.60;;;0.68;;
66521;SDS011;53349;53.538;8.584;2022-11-04T03:54:12;2.60;;;0.40;;
66521;SDS011;53349;53.538;8.584;2022-11-04T03:56:50;2.70;;;0.77;;
66521;SDS011;53349;53.538;8.584;2022-11-04T04:01:57;3.85;;;0.57;;
66521;SDS011;53349;53.538;8.584;2022-11-04T04:04:36;2.63;;;0.50;;
66521;SDS011;53349;53.538;8.584;2022-11-04T04:07:05;1.90;;;0.32;;
66521;SDS011;53349;53.538;8.584;2022-11-04T04:09:40;2.17;;;0.40;;
66521;SDS011;53349;53.538;8.584;2022-11-04T04:12:12;2.63;;;0.53;;
66521;SDS011;53349;53.538;8.584;2022-11-04T04:14:48;4.28;;;0.50;;
66521;SDS011;53349;53.538;8.584;2022-11-04T04:20:04;1.70;;;0.40;;
66521;SDS011;53349;53.538;8.584;2022-11-04T04:22:35;1.92;;;0.50;;
66521;SDS011;53349;53.538;8.584;2022-11-04T04:25:06;2.30;;;0.50;;
66521;SDS011;53349;53.538;8.584;2022-11-04T04:27:54;2.00;;;0.50;;
66521;SDS011;53349;53.538;8.584;2022-11-04T04:30:22;3.10;;;0.60;;
66521;SDS011;53349;53.538;8.584;2022-11-04T04:32:49;1.97;;;0.57;;
66521;SDS011;53349;53.538;8.584;2022-11-04T04:35:20;2.55;;;0.70;;
66521;SDS011;53349;53.538;8.584;2022-11-04T04:38:21;2.92;;;0.60;;
66521;SDS011;53349;53.538;8.584;2022-11-04T04:43:57;3.92;;;0.70;;
66521;SDS011;53349;53.538;8.584;2022-11-04T04:46:41;1.90;;;0.50;;
66521;SDS011;53349;53.538;8.584;2022-11-04T04:49:09;2.95;;;0.68;;
66521;SDS011;53349;53.538;8.584;2022-11-04T04:51:39;3.53;;;0.60;;
66521;SDS011;53349;53.538;8.584;2022-11-04T04:54:07;2.80;;;0.70;;
66521;SDS011;53349;53.538;8.584;2022-11-04T04:56:33;1.98;;;0.60;;
66521;SDS011;53349;53.538;8.584;2022-11-04T04:58:58;2.40;;;0.60;;
66521;SDS011;53349;53.538;8.584;2022-11-04T05:01:23;2.73;;;0.67;;
66521;SDS011;53349;53.538;8.584;2022-11-04T05:03:49;3.67;;;0.73;;
66521;SDS011;53349;53.538;8.584;2022-11-04T05:06:14;2.37;;;0.57;;
66521;SDS011;53349;53.538;8.584;2022-11-04T05:08:39;2.40;;;0.80;;
66521;SDS011;53349;53.538;8.584;2022-11-04T05:11:05;2.13;;;0.73;;
66521;SDS011;53349;53.538;8.584;2022-11-04T05:13:30;2.42;;;0.70;;
66521;SDS011;53349;53.538;8.584;2022-11-04T05:15:56;2.00;;;0.60;;
66521;SDS011;53349;53.538;8.584;2022-11-04T05:18:26;2.38;;;0.70;;
66521;SDS011;53349;53.538;8.584;2022-11-04T05:20:51;3.00;;;0.43;;
66521;SDS011;53349;53.538;8.584;2022-11-04T05:23:17;2.20;;;0.50;;
66521;SDS011;53349;53.538;8.584;2022-11-04T05:25:42;3.40;;;0.67;;
66521;SDS011;53349;53.538;8.584;2022-11-04T05:28:07;2.00;;;0.70;;
66521;SDS011;53349;53.538;8.584;2022-11-04T05:30:33;2.40;;;0.53;;
66521;SDS011;53349;53.538;8.584;2022-11-04T05:32:59;2.50;;;0.50;;
66521;SDS011;53349;53.538;8.584;2022-11-04T05:35:24;2.43;;;0.60;;
66521;SDS011;53349;53.538;8.584;2022-11-04T05:37:49;1.70;;;0.40;;
66521;SDS011;53349;53.538;8.584;2022-11-04T05:40:15;1.90;;;0.60;;
66521;SDS011;53349;53.538;8.584;2022-11-04T05:42:40;3.00;;;0.50;;
66521;SDS011;53349;53.538;8.584;2022-11-04T05:45:06;3.17;;;0.50;;
66521;SDS011;53349;53.538;8.584;2022-11-04T05:47:31;2.07;;;0.40;;
66521;SDS011;53349;53.538;8.584;2022-11-04T05:49:57;2.10;;;0.37;;
66521;SDS011;53349;53.538;8.584;2022-11-04T05:52:22;2.67;;;0.45;;
66521;SDS011;53349;53.538;8.584;2022-11-04T05:54:47;1.70;;;0.23;;
66521;SDS011;53349;53.538;8.584;2022-11-04T05:57:13;3.20;;;0.60;;
66521;SDS011;53349;53.538;8.584;2022-11-04T05:59:38;2.60;;;0.40;;
66521;SDS011;53349;53.538;8.584;2022-11-04T06:02:03;1.87;;;0.30;;
66521;SDS011;53349;53.538;8.584;2022-11-04T06:04:29;2.03;;;0.53;;
66521;SDS011;53349;53.538;8.584;2022-11-04T06:06:54;2.25;;;0.35;;
66521;SDS011;53349;53.538;8.584;2022-11-04T06:09:20;3.30;;;0.40;;
66521;SDS011;53349;53.538;8.584;2022-11-04T06:12:02;1.75;;;0.38;;
66521;SDS011;53349;53.538;8.584;2022-11-04T06:14:35;2.10;;;0.55;;
66521;SDS011;53349;53.538;8.584;2022-11-04T06:17:01;1.90;;;0.30;;
66521;SDS011;53349;53.538;8.584;2022-11-04T06:19:27;1.33;;;0.30;;
66521;SDS011;53349;53.538;8.584;2022-11-04T06:21:52;1.73;;;0.30;;
66521;SDS011;53349;53.538;8.584;2022-11-04T06:24:17;1.77;;;0.40;;
66521;SDS011;53349;53.538;8.584;2022-11-04T06:26:43;1.90;;;0.30;;
66521;SDS011;53349;53.538;8.584;2022-11-04T06:29:08;1.23;;;0.23;;
66521;SDS011;53349;53.538;8.584;2022-11-04T06:31:34;2.73;;;0.67;;
66521;SDS011;53349;53.538;8.584;2022-11-04T06:34:00;2.20;;;0.40;;
66521;SDS011;53349;53.538;8.584;2022-11-04T06:36:25;1.40;;;0.30;;
66521;SDS011;53349;53.538;8.584;2022-11-04T06:38:51;1.90;;;0.47;;
66521;SDS011;53349;53.538;8.584;2022-11-04T06:41:16;1.73;;;0.50;;
66521;SDS011;53349;53.538;8.584;2022-11-04T06:43:42;2.10;;;0.40;;
66521;SDS011;53349;53.538;8.584;2022-11-04T06:48:54;1.63;;;0.60;;
66521;SDS011;53349;53.538;8.584;2022-11-04T06:51:21;1.50;;;0.30;;
66521;SDS011;53349;53.538;8.584;2022-11-04T06:53:52;1.55;;;0.32;;
66521;SDS011;53349;53.538;8.584;2022-11-04T06:56:18;2.17;;;0.52;;
66521;SDS011;53349;53.538;8.584;2022-11-04T06:58:46;1.87;;;0.43;;
66521;SDS011;53349;53.538;8.584;2022-11-04T07:01:12;1.95;;;0.50;;
66521;SDS011;53349;53.538;8.584;2022-11-04T07:03:38;3.50;;;0.80;;
66521;SDS011;53349;53.538;8.584;2022-11-04T07:06:07;3.63;;;0.70;;
66521;SDS011;53349;53.538;8.584;2022-11-04T07:08:33;3.20;;;0.80;;
66521;SDS011;53349;53.538;8.584;2022-11-04T07:10:58;2.03;;;0.67;;
66521;SDS011;53349;53.538;8.584;2022-11-04T07:13:23;3.23;;;0.70;;
66521;SDS011;53349;53.538;8.584;2022-11-04T07:15:49;3.03;;;0.57;;
66521;SDS011;53349;53.538;8.584;2022-11-04T07:18:14;2.07;;;0.60;;
66521;SDS011;53349;53.538;8.584;2022-11-04T07:20:39;2.50;;;0.70;;
66521;SDS011;53349;53.538;8.584;2022-11-04T07:23:05;3.03;;;1.00;;
66521;SDS011;53349;53.538;8.584;2022-11-04T07:25:30;2.90;;;0.87;;
66521;SDS011;53349;53.538;8.584;2022-11-04T07:27:55;2.57;;;0.70;;
66521;SDS011;53349;53.538;8.584;2022-11-04T07:30:21;2.70;;;0.77;;
66521;SDS011;53349;53.538;8.584;2022-11-04T07:32:47;4.55;;;1.10;;
66521;SDS011;53349;53.538;8.584;2022-11-04T07:35:12;3.10;;;1.00;;
66521;SDS011;53349;53.538;8.584;2022-11-04T07:37:38;2.53;;;0.90;;
66521;SDS011;53349;53.538;8.584;2022-11-04T07:40:06;2.50;;;1.00;;
66521;SDS011;53349;53.538;8.584;2022-11-04T07:42:32;2.75;;;1.00;;
66521;SDS011;53349;53.538;8.584;2022-11-04T07:44:57;2.83;;;0.87;;
66521;SDS011;53349;53.538;8.584;2022-11-04T07:47:22;2.50;;;0.83;;
66521;SDS011;53349;53.538;8.584;2022-11-04T07:49:48;2.13;;;0.60;;
66521;SDS011;53349;53.538;8.584;2022-11-04T07:52:13;2.70;;;0.70;;
66521;SDS011;53349;53.538;8.584;2022-11-04T07:54:39;2.77;;;0.80;;
66521;SDS011;53349;53.538;8.584;2022-11-04T07:57:04;2.97;;;0.80;;
66521;SDS011;53349;53.538;8.584;2022-11-04T07:59:30;2.13;;;0.60;;
66521;SDS011;53349;53.538;8.584;2022-11-04T08:01:55;2.33;;;0.53;;
66521;SDS011;53349;53.538;8.584;2022-11-04T08:04:21;2.65;;;0.52;;
66521;SDS011;53349;53.538;8.584;2022-11-04T08:06:46;3.30;;;0.60;;
66521;SDS011;53349;53.538;8.584;2022-11-04T08:09:11;3.07;;;0.80;;
66521;SDS011;53349;53.538;8.584;2022-11-04T08:11:37;3.07;;;0.60;;
66521;SDS011;53349;53.538;8.584;2022-11-04T08:14:02;4.53;;;0.50;;
66521;SDS011;53349;53.538;8.584;2022-11-04T08:16:28;2.00;;;0.60;;
66521;SDS011;53349;53.538;8.584;2022-11-04T08:18:54;2.22;;;0.60;;
66521;SDS011;53349;53.538;8.584;2022-11-04T08:21:25;2.20;;;0.60;;
66521;SDS011;53349;53.538;8.584;2022-11-04T08:23:51;2.28;;;0.52;;
66521;SDS011;53349;53.538;8.584;2022-11-04T08:26:17;3.50;;;0.60;;
66521;SDS011;53349;53.538;8.584;2022-11-04T08:28:44;2.33;;;0.73;;
66521;SDS011;53349;53.538;8.584;2022-11-04T08:31:13;2.50;;;0.80;;
66521;SDS011;53349;53.538;8.584;2022-11-04T08:33:40;3.33;;;0.90;;
66521;SDS011;53349;53.538;8.584;2022-11-04T08:36:07;1.37;;;0.37;;
66521;SDS011;53349;53.538;8.584;2022-11-04T08:38:36;1.88;;;0.60;;
66521;SDS011;53349;53.538;8.584;2022-11-04T08:41:03;4.03;;;0.73;;
66521;SDS011;53349;53.538;8.584;2022-11-04T08:43:30;4.43;;;0.70;;
66521;SDS011;53349;53.538;8.584;2022-11-04T08:45:56;3.58;;;0.70;;
66521;SDS011;53349;53.538;8.584;2022-11-04T08:48:21;3.70;;;0.70;;
66521;SDS011;53349;53.538;8.584;2022-11-04T08:50:53;3.53;;;0.70;;
66521;SDS011;53349;53.538;8.584;2022-11-04T08:53:20;3.38;;;0.90;;
66521;SDS011;53349;53.538;8.584;2022-11-04T08:55:46;3.40;;;0.93;;
66521;SDS011;53349;53.538;8.584;2022-11-04T08:58:12;3.40;;;0.80;;
66521;SDS011;53349;53.538;8.584;2022-11-04T09:00:38;5.32;;;0.88;;
66521;SDS011;53349;53.538;8.584;2022-11-04T09:03:04;5.25;;;0.95;;
66521;SDS011;53349;53.538;8.584;2022-11-04T09:05:30;4.20;;;0.80;;
66521;SDS011;53349;53.538;8.584;2022-11-04T09:07:55;2.67;;;0.70;;
66521;SDS011;53349;53.538;8.584;2022-11-04T09:10:21;4.00;;;0.87;;
66521;SDS011;53349;53.538;8.584;2022-11-04T09:12:46;3.80;;;0.80;;
66521;SDS011;53349;53.538;8.584;2022-11-04T09:15:12;5.00;;;0.90;;
66521;SDS011;53349;53.538;8.584;2022-11-04T09:17:37;4.90;;;0.80;;
66521;SDS011;53349;53.538;8.584;2022-11-04T09:20:03;2.10;;;0.63;;
66521;SDS011;53349;53.538;8.584;2022-11-04T09:22:29;2.15;;;0.60;;
66521;SDS011;53349;53.538;8.584;2022-11-04T09:24:55;3.75;;;0.50;;
66521;SDS011;53349;53.538;8.584;2022-11-04T09:27:21;1.73;;;0.50;;
66521;SDS011;53349;53.538;8.584;2022-11-04T09:29:46;5.17;;;0.80;;
66521;SDS011;53349;53.538;8.584;2022-11-04T09:32:11;3.53;;;0.70;;
66521;SDS011;53349;53.538;8.584;2022-11-04T09:34:37;3.63;;;0.67;;
66521;SDS011;53349;53.538;8.584;2022-11-04T09:37:02;2.93;;;0.80;;
66521;SDS011;53349;53.538;8.584;2022-11-04T09:39:27;3.38;;;1.15;;
66521;SDS011;53349;53.538;8.584;2022-11-04T09:44:50;3.17;;;0.82;;
66521;SDS011;53349;53.538;8.584;2022-11-04T09:47:22;2.83;;;0.80;;
66521;SDS011;53349;53.538;8.584;2022-11-04T09:49:50;3.55;;;0.65;;
66521;SDS011;53349;53.538;8.584;2022-11-04T09:52:41;3.65;;;0.73;;
66521;SDS011;53349;53.538;8.584;2022-11-04T09:55:13;2.17;;;0.68;;
66521;SDS011;53349;53.538;8.584;2022-11-04T09:57:46;2.15;;;0.73;;
66521;SDS011;53349;53.538;8.584;2022-11-04T10:00:18;4.63;;;0.80;;
66521;SDS011;53349;53.538;8.584;2022-11-04T10:08:28;3.50;;;0.70;;
66521;SDS011;53349;53.538;8.584;2022-11-04T10:11:28;2.95;;;0.47;;
66521;SDS011;53349;53.538;8.584;2022-11-04T10:19:10;3.15;;;0.52;;
66521;SDS011;53349;53.538;8.584;2022-11-04T10:27:44;4.18;;;0.70;;
66521;SDS011;53349;53.538;8.584;2022-11-04T10:35:33;3.10;;;0.80;;
66521;SDS011;53349;53.538;8.584;2022-11-04T10:38:36;5.10;;;0.60;;
66521;SDS011;53349;53.538;8.584;2022-11-04T10:41:13;3.95;;;0.63;;
66521;SDS011;53349;53.538;8.584;2022-11-04T10:44:00;3.97;;;0.88;;
66521;SDS011;53349;53.538;8.584;2022-11-04T10:49:48;2.78;;;0.70;;
66521;SDS011;53349;53.538;8.584;2022-11-04T10:52:17;4.43;;;0.60;;
66521;SDS011;53349;53.538;8.584;2022-11-04T10:54:43;2.67;;;0.75;;
66521;SDS011;53349;53.538;8.584;2022-11-04T10:57:11;3.75;;;0.77;;
66521;SDS011;53349;53.538;8.584;2022-11-04T11:07:43;4.63;;;0.70;;
66521;SDS011;53349;53.538;8.584;2022-11-04T11:15:36;3.30;;;0.70;;
66521;SDS011;53349;53.538;8.584;2022-11-04T11:20:39;4.22;;;0.85;;
66521;SDS011;53349;53.538;8.584;2022-11-04T11:23:09;4.30;;;0.93;;
66521;SDS011;53349;53.538;8.584;2022-11-04T11:25:59;5.65;;;0.82;;
66521;SDS011;53349;53.538;8.584;2022-11-04T11:28:25;3.10;;;0.80;;
66521;SDS011;53349;53.538;8.584;2022-11-04T11:31:01;3.67;;;0.77;;
66521;SDS011;53349;53.538;8.584;2022-11-04T11:33:35;2.42;;;0.70;;
66521;SDS011;53349;53.538;8.584;2022-11-04T11:36:08;4.07;;;0.60;;
66521;SDS011;53349;53.538;8.584;2022-11-04T11:38:58;4.00;;;0.57;;
66521;SDS011;53349;53.538;8.584;2022-11-04T11:41:30;2.97;;;0.60;;
66521;SDS011;53349;53.538;8.584;2022-11-04T11:44:16;2.30;;;0.50;;
66521;SDS011;53349;53.538;8.584;2022-11-04T11:46:49;4.10;;;0.50;;
66521;SDS011;53349;53.538;8.584;2022-11-04T11:49:23;5.67;;;0.67;;
66521;SDS011;53349;53.538;8.584;2022-11-04T11:51:52;3.78;;;0.60;;
66521;SDS011;53349;53.538;8.584;2022-11-04T11:54:26;5.13;;;0.70;;
66521;SDS011;53349;53.538;8.584;2022-11-04T11:56:59;5.25;;;0.70;;
66521;SDS011;53349;53.538;8.584;2022-11-04T11:59:29;2.85;;;0.60;;
66521;SDS011;53349;53.538;8.584;2022-11-04T12:05:01;3.13;;;0.70;;
66521;SDS011;53349;53.538;8.584;2022-11-04T12:10:28;2.80;;;0.53;;
66521;SDS011;53349;53.538;8.584;2022-11-04T12:13:23;4.43;;;0.77;;
66521;SDS011;53349;53.538;8.584;2022-11-04T12:15:57;3.75;;;0.60;;
66521;SDS011;53349;53.538;8.584;2022-11-04T12:21:45;3.95;;;0.63;;
66521;SDS011;53349;53.538;8.584;2022-11-04T12:35:14;4.35;;;0.70;;
66521;SDS011;53349;53.538;8.584;2022-11-04T12:38:29;4.03;;;1.07;;
66521;SDS011;53349;53.538;8.584;2022-11-04T12:41:13;4.70;;;0.90;;
66521;SDS011;53349;53.538;8.584;2022-11-04T12:49:12;3.78;;;0.60;;
66521;SDS011;53349;53.538;8.584;2022-11-04T13:02:39;4.40;;;0.90;;
66521;SDS011;53349;53.538;8.584;2022-11-04T13:07:41;5.45;;;0.70;;
66521;SDS011;53349;53.538;8.584;2022-11-04T13:10:18;5.15;;;0.80;;
66521;SDS011;53349;53.538;8.584;2022-11-04T13:12:51;5.43;;;0.80;;
66521;SDS011;53349;53.538;8.584;2022-11-04T13:15:20;7.50;;;1.10;;
66521;SDS011;53349;53.538;8.584;2022-11-04T13:17:49;4.77;;;0.80;;
66521;SDS011;53349;53.538;8.584;2022-11-04T13:23:11;3.72;;;0.50;;
66521;SDS011;53349;53.538;8.584;2022-11-04T13:25:44;3.08;;;0.65;;
66521;SDS011;53349;53.538;8.584;2022-11-04T13:28:12;3.53;;;0.82;;
66521;SDS011;53349;53.538;8.584;2022-11-04T13:30:54;3.13;;;0.60;;
66521;SDS011;53349;53.538;8.584;2022-11-04T13:36:23;8.48;;;1.95;;
66521;SDS011;53349;53.538;8.584;2022-11-04T13:38:53;5.03;;;0.77;;
66521;SDS011;53349;53.538;8.584;2022-11-04T13:41:36;3.17;;;0.82;;
66521;SDS011;53349;53.538;8.584;2022-11-04T13:44:14;7.00;;;0.80;;
66521;SDS011;53349;53.538;8.584;2022-11-04T13:46:46;2.47;;;0.52;;
66521;SDS011;53349;53.538;8.584;2022-11-04T13:49:20;5.25;;;0.70;;
66521;SDS011;53349;53.538;8.584;2022-11-04T13:52:02;4.65;;;0.80;;
66521;SDS011;53349;53.538;8.584;2022-11-04T13:54:35;4.03;;;0.68;;
66521;SDS011;53349;53.538;8.584;2022-11-04T13:57:04;4.27;;;0.90;;
66521;SDS011;53349;53.538;8.584;2022-11-04T13:59:33;4.68;;;1.00;;
66521;SDS011;53349;53.538;8.584;2022-11-04T14:04:43;4.25;;;0.90;;
66521;SDS011;53349;53.538;8.584;2022-11-04T14:07:10;7.57;;;1.00;;
66521;SDS011;53349;53.538;8.584;2022-11-04T14:14:39;4.15;;;0.75;;
66521;SDS011;53349;53.538;8.584;2022-11-04T14:22:54;7.80;;;0.70;;
66521;SDS011;53349;53.538;8.584;2022-11-04T14:25:25;6.03;;;0.90;;
66521;SDS011;53349;53.538;8.584;2022-11-04T14:27:57;8.27;;;1.00;;
66521;SDS011;53349;53.538;8.584;2022-11-04T14:33:19;4.13;;;0.65;;
66521;SDS011;53349;53.538;8.584;2022-11-04T14:35:44;7.90;;;1.23;;
66521;SDS011;53349;53.538;8.584;2022-11-04T14:38:43;4.25;;;0.85;;
66521;SDS011;53349;53.538;8.584;2022-11-04T14:41:13;4.37;;;0.83;;
66521;SDS011;53349;53.538;8.584;2022-11-04T14:43:53;3.95;;;0.60;;
66521;SDS011;53349;53.538;8.584;2022-11-04T14:46:21;7.60;;;0.70;;
66521;SDS011;53349;53.538;8.584;2022-11-04T14:48:53;5.50;;;0.60;;
66521;SDS011;53349;53.538;8.584;2022-11-04T14:51:27;7.55;;;1.60;;
66521;SDS011;53349;53.538;8.584;2022-11-04T14:54:14;4.43;;;1.23;;
66521;SDS011;53349;53.538;8.584;2022-11-04T14:56:44;4.88;;;1.02;;
66521;SDS011;53349;53.538;8.584;2022-11-04T14:59:19;4.60;;;1.00;;
66521;SDS011;53349;53.538;8.584;2022-11-04T15:01:46;3.22;;;0.80;;
66521;SDS011;53349;53.538;8.584;2022-11-04T15:04:23;6.05;;;0.85;;
66521;SDS011;53349;53.538;8.584;2022-11-04T15:06:54;7.07;;;0.90;;
66521;SDS011;53349;53.538;8.584;2022-11-04T15:11:59;7.13;;;0.90;;
66521;SDS011;53349;53.538;8.584;2022-11-04T15:14:49;8.07;;;3.63;;
66521;SDS011;53349;53.538;8.584;2022-11-04T15:17:16;7.67;;;0.90;;
66521;SDS011;53349;53.538;8.584;2022-11-04T15:19:43;7.72;;;1.10;;
66521;SDS011;53349;53.538;8.584;2022-11-04T15:22:14;7.00;;;0.88;;
66521;SDS011;53349;53.538;8.584;2022-11-04T15:24:39;7.55;;;1.02;;
66521;SDS011;53349;53.538;8.584;2022-11-04T15:27:11;8.27;;;1.00;;
66521;SDS011;53349;53.538;8.584;2022-11-04T15:29:39;4.70;;;0.85;;
66521;SDS011;53349;53.538;8.584;2022-11-04T15:32:05;5.38;;;0.90;;
66521;SDS011;53349;53.538;8.584;2022-11-04T15:34:31;5.77;;;0.90;;
66521;SDS011;53349;53.538;8.584;2022-11-04T15:36:58;8.93;;;1.02;;
66521;SDS011;53349;53.538;8.584;2022-11-04T15:39:31;6.88;;;1.00;;
66521;SDS011;53349;53.538;8.584;2022-11-04T15:42:00;4.03;;;1.10;;
66521;SDS011;53349;53.538;8.584;2022-11-04T15:44:50;7.10;;;0.98;;
66521;SDS011;53349;53.538;8.584;2022-11-04T15:49:43;7.33;;;1.20;;
66521;SDS011;53349;53.538;8.584;2022-11-04T15:52:20;6.70;;;1.10;;
66521;SDS011;53349;53.538;8.584;2022-11-04T15:54:50;6.30;;;0.80;;
66521;SDS011;53349;53.538;8.584;2022-11-04T15:57:19;6.28;;;0.90;;
66521;SDS011;53349;53.538;8.584;2022-11-04T15:59:48;5.38;;;0.93;;
66521;SDS011;53349;53.538;8.584;2022-11-04T16:02:27;5.03;;;0.90;;
66521;SDS011;53349;53.538;8.584;2022-11-04T16:05:04;9.40;;;1.30;;
66521;SDS011;53349;53.538;8.584;2022-11-04T16:07:37;8.23;;;1.17;;
66521;SDS011;53349;53.538;8.584;2022-11-04T16:13:19;8.30;;;1.20;;
66521;SDS011;53349;53.538;8.584;2022-11-04T16:20:56;4.38;;;0.90;;
66521;SDS011;53349;53.538;8.584;2022-11-04T16:23:24;5.60;;;1.38;;
66521;SDS011;53349;53.538;8.584;2022-11-04T16:25:59;9.35;;;1.45;;
66521;SDS011;53349;53.538;8.584;2022-11-04T16:28:28;8.43;;;1.43;;
66521;SDS011;53349;53.538;8.584;2022-11-04T16:31:00;5.85;;;1.35;;
66521;SDS011;53349;53.538;8.584;2022-11-04T16:33:45;9.88;;;1.33;;
66521;SDS011;53349;53.538;8.584;2022-11-04T16:36:11;7.40;;;1.37;;
66521;SDS011;53349;53.538;8.584;2022-11-04T16:38:50;6.22;;;1.00;;
66521;SDS011;53349;53.538;8.584;2022-11-04T16:41:17;6.72;;;1.30;;
66521;SDS011;53349;53.538;8.584;2022-11-04T16:43:43;8.17;;;1.13;;
66521;SDS011;53349;53.538;8.584;2022-11-04T16:46:10;9.67;;;1.00;;
66521;SDS011;53349;53.538;8.584;2022-11-04T16:48:36;8.48;;;1.40;;
66521;SDS011;53349;53.538;8.584;2022-11-04T16:51:01;8.63;;;1.10;;
66521;SDS011;53349;53.538;8.584;2022-11-04T16:53:27;10.13;;;1.40;;
66521;SDS011;53349;53.538;8.584;2022-11-04T16:55:52;5.60;;;1.00;;
66521;SDS011;53349;53.538;8.584;2022-11-04T16:58:19;6.20;;;1.02;;
66521;SDS011;53349;53.538;8.584;2022-11-04T17:00:45;6.00;;;0.98;;
66521;SDS011;53349;53.538;8.584;2022-11-04T17:03:13;6.75;;;1.25;;
66521;SDS011;53349;53.538;8.584;2022-11-04T17:05:49;9.43;;;1.30;;
66521;SDS011;53349;53.538;8.584;2022-11-04T17:08:20;4.57;;;0.97;;
66521;SDS011;53349;53.538;8.584;2022-11-04T17:10:46;4.50;;;1.13;;
66521;SDS011;53349;53.538;8.584;2022-11-04T17:13:12;5.67;;;1.50;;
66521;SDS011;53349;53.538;8.584;2022-11-04T17:15:37;6.25;;;1.40;;
66521;SDS011;53349;53.538;8.584;2022-11-04T17:18:03;4.95;;;1.50;;
66521;SDS011;53349;53.538;8.584;2022-11-04T17:20:29;8.30;;;1.63;;
66521;SDS011;53349;53.538;8.584;2022-11-04T17:22:56;7.15;;;1.50;;
66521;SDS011;53349;53.538;8.584;2022-11-04T17:25:23;6.90;;;1.60;;
66521;SDS011;53349;53.538;8.584;2022-11-04T17:27:50;8.38;;;1.80;;
66521;SDS011;53349;53.538;8.584;2022-11-04T17:30:16;6.63;;;1.60;;
66521;SDS011;53349;53.538;8.584;2022-11-04T17:32:42;10.15;;;1.90;;
66521;SDS011;53349;53.538;8.584;2022-11-04T17:35:09;5.25;;;1.60;;
66521;SDS011;53349;53.538;8.584;2022-11-04T17:37:34;7.10;;;1.55;;
66521;SDS011;53349;53.538;8.584;2022-11-04T17:39:59;8.27;;;1.93;;
66521;SDS011;53349;53.538;8.584;2022-11-04T17:42:25;6.00;;;1.57;;
66521;SDS011;53349;53.538;8.584;2022-11-04T17:45:09;9.55;;;1.65;;
66521;SDS011;53349;53.538;8.584;2022-11-04T17:47:34;9.57;;;1.60;;
66521;SDS011;53349;53.538;8.584;2022-11-04T17:50:01;8.18;;;2.15;;